createdAt,value
2022-08-22T00:01:45.558Z,18.80
2022-08-22T00:02:43.553Z,19.20
2022-08-22T00:03:10.896Z,18.50
2022-08-22T00:04:53.088Z,18.10
2022-08-22T00:07:38.919Z,19.10
2022-08-22T00:10:25.608Z,18.20
2022-08-22T00:13:10.073Z,18.10
2022-08-22T00:16:18.344Z,18.20
2022-08-22T00:18:52.694Z,19.20
2022-08-22T00:21:42.082Z,18.00
2022-08-22T00:24:18.421Z,18.90
2022-08-22T00:27:10.097Z,18.10
2022-08-22T00:29:49.845Z,17.10
2022-08-22T00:32:58.181Z,18.90
2022-08-22T00:35:49.803Z,17.30
2022-08-22T00:38:28.020Z,18.10
2022-08-22T00:41:37.435Z,18.10
2022-08-22T00:44:48.207Z,19.10
2022-08-22T00:47:51.684Z,19.10
2022-08-22T00:55:35.917Z,18.00
2022-08-22T00:58:36.702Z,18.80
2022-08-22T01:01:09.581Z,18.00
2022-08-22T01:03:46.818Z,19.40
2022-08-22T01:06:53.237Z,18.00
2022-08-22T01:09:36.401Z,16.80
2022-08-22T01:15:01.827Z,17.60
2022-08-22T01:17:59.312Z,18.50
2022-08-22T01:20:56.732Z,17.50
2022-08-22T01:23:46.935Z,17.90
2022-08-22T01:27:00.130Z,17.50
2022-08-22T01:30:05.426Z,17.80
2022-08-22T01:32:49.031Z,17.50
2022-08-22T01:35:59.461Z,17.80
2022-08-22T01:39:07.287Z,18.40
2022-08-22T01:41:58.573Z,17.60
2022-08-22T01:44:41.767Z,17.00
2022-08-22T01:47:30.917Z,18.00
2022-08-22T01:50:27.739Z,17.70
2022-08-22T01:53:07.121Z,17.70
2022-08-22T01:55:46.162Z,19.30
2022-08-22T01:58:25.883Z,17.90
2022-08-22T02:01:11.370Z,17.30
2022-08-22T02:03:59.340Z,18.20
2022-08-22T02:07:08.087Z,18.40
2022-08-22T02:09:53.302Z,17.80
2022-08-22T02:13:02.558Z,17.80
2022-08-22T02:15:41.879Z,17.80
2022-08-22T02:18:29.570Z,17.20
2022-08-22T02:21:29.724Z,17.80
2022-08-22T02:24:16.675Z,17.30
2022-08-22T02:27:05.465Z,18.10
2022-08-22T02:30:14.436Z,19.00
2022-08-22T02:35:36.702Z,17.40
2022-08-22T02:38:40.956Z,17.50
2022-08-22T02:44:19.479Z,17.50
2022-08-22T02:47:21.317Z,17.70
2022-08-22T02:50:12.646Z,17.60
2022-08-22T02:53:06.449Z,17.60
2022-08-22T02:56:06.300Z,17.50
2022-08-22T02:59:00.124Z,17.70
2022-08-22T03:01:30.288Z,17.60
2022-08-22T03:04:31.353Z,18.10
2022-08-22T03:07:20.105Z,17.60
2022-08-22T03:10:27.960Z,18.70
2022-08-22T03:13:30.788Z,17.60
2022-08-22T03:16:15.483Z,17.60
2022-08-22T03:19:04.512Z,17.50
2022-08-22T03:21:54.437Z,16.90
2022-08-22T03:25:02.347Z,17.60
2022-08-22T03:28:02.484Z,17.10
2022-08-22T03:30:55.519Z,17.50
2022-08-22T03:33:30.742Z,17.50
2022-08-22T03:36:20.282Z,17.60
2022-08-22T03:39:51.971Z,17.60
2022-08-22T03:43:09.751Z,17.50
2022-08-22T03:48:55.256Z,17.50
2022-08-22T03:51:55.177Z,17.90
2022-08-22T03:54:49.050Z,17.40
2022-08-22T03:57:44.416Z,17.50
2022-08-22T04:03:06.268Z,17.20
2022-08-22T04:06:23.502Z,17.60
2022-08-22T04:12:01.754Z,17.60
2022-08-22T04:15:09.275Z,17.80
2022-08-22T04:18:07.250Z,17.60
2022-08-22T04:21:27.152Z,17.50
2022-08-22T04:24:48.387Z,17.70
2022-08-22T04:27:30.142Z,17.50
2022-08-22T04:30:21.117Z,17.70
2022-08-22T04:33:07.001Z,17.70
2022-08-22T04:36:00.024Z,17.80
2022-08-22T04:39:18.572Z,17.80
2022-08-22T04:41:54.212Z,17.90
2022-08-22T04:47:36.574Z,18.10
2022-08-22T04:50:31.228Z,18.30
2022-08-22T04:53:44.256Z,18.30
2022-08-22T05:01:57.222Z,18.70
2022-08-22T05:07:16.464Z,20.00
2022-08-22T05:09:53.049Z,18.60
2022-08-22T05:15:22.980Z,18.60
2022-08-22T05:17:55.796Z,19.20
2022-08-22T05:20:27.741Z,18.30
2022-08-22T05:23:05.781Z,18.50
2022-08-22T05:25:38.629Z,18.40
2022-08-22T05:28:35.304Z,18.50
2022-08-22T05:31:17.215Z,18.40
2022-08-22T05:33:58.758Z,17.60
2022-08-22T05:36:38.924Z,18.60
2022-08-22T05:39:28.226Z,18.70
2022-08-22T05:41:58.499Z,18.90
2022-08-22T05:44:37.731Z,19.50
2022-08-22T05:49:45.174Z,20.10
2022-08-22T05:52:44.918Z,20.10
2022-08-22T05:55:42.345Z,20.00
2022-08-22T05:58:32.195Z,19.70
2022-08-22T06:01:29.750Z,19.60
2022-08-22T06:04:09.337Z,19.40
2022-08-22T06:07:13.007Z,19.40
2022-08-22T06:09:49.263Z,19.30
2022-08-22T06:13:03.926Z,19.30
2022-08-22T06:15:58.210Z,19.40
2022-08-22T06:18:29.060Z,19.40
2022-08-22T06:21:02.588Z,19.40
2022-08-22T06:23:38.299Z,19.40
2022-08-22T06:28:56.848Z,19.70
2022-08-22T06:31:35.479Z,19.90
2022-08-22T06:36:48.531Z,20.00
2022-08-22T06:39:23.954Z,19.50
2022-08-22T06:44:59.527Z,20.10
2022-08-22T06:47:43.464Z,20.10
2022-08-22T06:50:31.108Z,19.70
2022-08-22T06:56:03.639Z,19.90
2022-08-22T06:58:39.196Z,19.90
2022-08-22T07:01:37.650Z,19.10
2022-08-22T07:04:11.051Z,19.50
2022-08-22T07:06:50.255Z,19.00
2022-08-22T07:12:19.518Z,19.30
2022-08-22T07:14:52.164Z,19.30
2022-08-22T07:17:28.818Z,19.20
2022-08-22T07:20:17.367Z,19.00
2022-08-22T07:23:07.476Z,19.30
2022-08-22T07:25:55.375Z,19.40
2022-08-22T07:28:51.226Z,19.20
2022-08-22T07:34:08.945Z,19.00
2022-08-22T07:37:03.476Z,19.60
2022-08-22T07:44:43.833Z,19.90
2022-08-22T07:47:18.111Z,19.90
2022-08-22T07:50:03.776Z,20.30
2022-08-22T07:55:24.401Z,20.50
2022-08-22T07:58:04.487Z,20.60
2022-08-22T08:00:33.061Z,20.70
2022-08-22T08:03:07.342Z,20.80
2022-08-22T08:05:38.658Z,21.20
2022-08-22T08:08:26.551Z,21.40
2022-08-22T08:10:59.280Z,21.60
2022-08-22T08:13:39.619Z,21.20
2022-08-22T08:16:16.123Z,21.50
2022-08-22T08:18:48.503Z,21.60
2022-08-22T08:21:38.132Z,21.70
2022-08-22T08:24:14.800Z,22.60
2022-08-22T08:27:13.553Z,21.70
2022-08-22T08:30:02.656Z,21.10
2022-08-22T08:32:38.137Z,22.70
2022-08-22T08:35:28.066Z,22.10
2022-08-22T08:38:14.898Z,22.00
2022-08-22T08:40:48.468Z,21.60
2022-08-22T08:43:49.870Z,22.10
2022-08-22T08:49:24.074Z,22.00
2022-08-22T08:52:15.591Z,22.30
2022-08-22T08:55:19.780Z,22.30
2022-08-22T08:58:07.750Z,22.20
2022-08-22T09:01:19.545Z,22.10
2022-08-22T09:04:15.329Z,21.60
2022-08-22T09:07:19.264Z,22.40
2022-08-22T09:09:58.181Z,23.60
2022-08-22T09:13:12.245Z,22.60
2022-08-22T09:19:11.577Z,23.30
2022-08-22T09:22:14.280Z,23.60
2022-08-22T09:27:54.613Z,23.20
2022-08-22T09:30:41.596Z,23.40
2022-08-22T09:33:21.856Z,25.00
2022-08-22T09:36:06.851Z,24.60
2022-08-22T09:38:49.707Z,24.60
2022-08-22T09:41:45.346Z,24.80
2022-08-22T09:47:35.573Z,25.00
2022-08-22T09:50:33.604Z,25.80
2022-08-22T09:53:54.018Z,25.90
2022-08-22T09:56:52.754Z,25.80
2022-08-22T09:59:48.905Z,25.50
2022-08-22T10:02:36.041Z,25.90
2022-08-22T10:05:43.998Z,26.10
2022-08-22T10:08:38.500Z,26.10
2022-08-22T10:11:28.889Z,26.40
2022-08-22T10:14:27.302Z,26.70
2022-08-22T10:19:36.651Z,26.70
2022-08-22T10:22:36.298Z,26.80
2022-08-22T10:25:31.308Z,26.90
2022-08-22T10:28:40.816Z,26.60
2022-08-22T10:31:58.890Z,26.90
2022-08-22T10:34:42.994Z,27.10
2022-08-22T10:37:30.550Z,25.70
2022-08-22T10:42:44.347Z,27.80
2022-08-22T10:45:37.288Z,28.20
2022-08-22T10:48:23.639Z,27.70
2022-08-22T10:51:16.454Z,27.90
2022-08-22T10:54:04.460Z,27.90
2022-08-22T10:56:44.082Z,28.30
2022-08-22T10:59:38.160Z,28.60
2022-08-22T11:02:38.519Z,28.60
2022-08-22T11:05:36.491Z,28.50
2022-08-22T11:08:22.402Z,28.60
2022-08-22T11:11:17.649Z,28.00
2022-08-22T11:14:13.597Z,28.70
2022-08-22T11:16:46.910Z,27.70
2022-08-22T11:19:34.288Z,28.90
2022-08-22T11:22:31.790Z,28.40
2022-08-22T11:28:21.314Z,28.80
2022-08-22T11:31:07.148Z,29.80
2022-08-22T11:39:18.432Z,29.60
2022-08-22T11:42:12.368Z,29.60
2022-08-22T11:44:50.689Z,29.00
2022-08-22T11:47:27.135Z,29.70
2022-08-22T11:50:25.000Z,31.20
2022-08-22T11:52:57.912Z,27.90
2022-08-22T11:56:36.847Z,28.10
2022-08-22T12:02:10.610Z,29.60
2022-08-22T12:04:57.942Z,30.60
2022-08-22T12:07:40.969Z,31.00
2022-08-22T12:15:34.387Z,29.30
2022-08-22T12:18:21.848Z,28.80
2022-08-22T12:21:53.731Z,29.40
2022-08-22T12:27:31.946Z,29.00
2022-08-22T12:30:31.425Z,29.60
2022-08-22T12:33:33.121Z,28.10
2022-08-22T12:36:36.372Z,28.50
2022-08-22T12:39:43.022Z,27.60
2022-08-22T12:42:54.748Z,27.30
2022-08-22T12:46:01.750Z,28.00
2022-08-22T12:49:19.615Z,25.40
2022-08-22T12:55:14.620Z,27.40
2022-08-22T13:00:47.384Z,27.00
2022-08-22T13:03:32.289Z,27.00
2022-08-22T13:06:07.843Z,26.50
2022-08-22T13:08:46.013Z,26.40
2022-08-22T13:11:23.186Z,26.20
2022-08-22T13:14:02.455Z,26.10
2022-08-22T13:16:49.002Z,26.30
2022-08-22T13:19:24.154Z,25.80
2022-08-22T13:22:00.250Z,25.70
2022-08-22T13:24:41.246Z,25.50
2022-08-22T13:27:34.111Z,25.50
2022-08-22T13:30:18.807Z,25.50
2022-08-22T13:32:51.415Z,25.30
2022-08-22T13:35:44.825Z,25.20
2022-08-22T13:38:38.556Z,24.80
2022-08-22T13:44:05.007Z,25.10
2022-08-22T13:46:52.819Z,24.80
2022-08-22T13:49:46.900Z,24.80
2022-08-22T13:57:59.690Z,23.80
2022-08-22T14:00:35.878Z,24.00
2022-08-22T14:03:10.613Z,23.60
2022-08-22T14:05:48.393Z,23.60
2022-08-22T14:11:03.546Z,23.50
2022-08-22T14:14:00.412Z,23.10
2022-08-22T14:16:39.416Z,22.50
2022-08-22T14:19:14.616Z,22.20
2022-08-22T14:21:50.789Z,22.10
2022-08-22T14:24:45.334Z,22.00
2022-08-22T14:35:35.129Z,21.70
2022-08-22T14:38:32.223Z,21.90
2022-08-22T14:41:55.442Z,21.80
2022-08-22T14:44:33.355Z,21.70
2022-08-22T14:47:32.380Z,21.60
2022-08-22T14:50:11.203Z,21.70
2022-08-22T14:52:49.169Z,21.60
2022-08-22T14:55:30.501Z,21.60
2022-08-22T15:03:29.745Z,21.60
2022-08-22T15:06:03.652Z,21.70
2022-08-22T15:08:46.450Z,21.60
2022-08-22T15:11:22.419Z,21.10
2022-08-22T15:16:46.697Z,21.60
2022-08-22T15:19:48.269Z,21.50
2022-08-22T15:22:27.562Z,21.70
2022-08-22T15:25:15.463Z,21.60
2022-08-22T15:28:14.160Z,21.70
2022-08-22T15:33:32.658Z,21.70
2022-08-22T15:36:22.384Z,21.60
2022-08-22T15:41:47.240Z,21.60
2022-08-22T15:47:14.979Z,21.60
2022-08-22T15:50:00.622Z,21.60
2022-08-22T15:52:59.751Z,21.10
2022-08-22T16:01:12.608Z,21.80
2022-08-22T16:04:12.782Z,22.10
2022-08-22T16:06:53.402Z,21.60
2022-08-22T16:09:32.800Z,22.00
2022-08-22T16:12:07.780Z,21.90
2022-08-22T16:14:34.981Z,22.60
2022-08-22T16:19:35.409Z,21.50
2022-08-22T16:30:11.036Z,22.00
2022-08-22T16:32:40.106Z,22.90
2022-08-22T16:37:50.081Z,21.90
2022-08-22T16:40:26.151Z,22.00
2022-08-22T16:45:48.777Z,21.90
2022-08-22T16:48:35.772Z,22.50
2022-08-22T17:00:02.095Z,21.70
2022-08-22T17:03:01.566Z,21.50
2022-08-22T17:11:36.515Z,21.40
2022-08-22T17:19:55.712Z,21.10
2022-08-22T17:22:42.519Z,21.20
2022-08-22T17:25:34.862Z,21.10
2022-08-22T17:28:40.170Z,21.10
2022-08-22T17:31:20.737Z,22.60
2022-08-22T17:34:21.806Z,21.00
2022-08-22T17:37:49.393Z,21.00
2022-08-22T17:40:42.539Z,20.80
2022-08-22T17:43:56.481Z,20.90
2022-08-22T17:49:19.568Z,21.10
2022-08-22T17:51:56.843Z,20.50
2022-08-22T17:54:55.320Z,21.30
2022-08-22T18:00:13.282Z,20.70
2022-08-22T18:03:05.903Z,20.70
2022-08-22T18:06:01.508Z,20.60
2022-08-22T18:11:56.404Z,19.50
2022-08-22T18:15:07.821Z,20.70
2022-08-22T18:18:04.808Z,20.50
2022-08-22T18:20:44.841Z,20.20
2022-08-22T18:23:40.841Z,20.10
2022-08-22T18:26:27.230Z,20.20
2022-08-22T18:29:08.868Z,19.70
2022-08-22T18:34:52.435Z,20.20
2022-08-22T18:37:31.796Z,19.30
2022-08-22T18:40:29.178Z,20.20
2022-08-22T18:43:40.904Z,20.30
2022-08-22T18:49:20.266Z,20.00
2022-08-22T18:52:17.665Z,20.10
2022-08-22T18:57:48.306Z,20.60
2022-08-22T19:00:38.461Z,20.10
2022-08-22T19:07:20.329Z,19.90
2022-08-22T19:12:27.390Z,19.30
2022-08-22T19:18:08.522Z,19.70
2022-08-22T19:20:59.694Z,19.80
2022-08-22T19:23:34.420Z,19.40
2022-08-22T19:26:26.222Z,19.50
2022-08-22T19:29:18.530Z,19.50
2022-08-22T19:32:00.928Z,19.50
2022-08-22T19:37:30.947Z,19.50
2022-08-22T19:40:17.394Z,19.00
2022-08-22T19:42:50.230Z,19.50
2022-08-22T19:50:44.220Z,19.40
2022-08-22T19:53:42.297Z,19.50
2022-08-22T19:56:49.460Z,19.50
2022-08-22T20:00:09.040Z,19.40
2022-08-22T20:02:59.302Z,19.30
2022-08-22T20:09:17.510Z,19.40
2022-08-22T20:12:15.105Z,19.10
2022-08-22T20:14:47.393Z,19.20
2022-08-22T20:17:26.787Z,19.20
2022-08-22T20:22:53.167Z,19.20
2022-08-22T20:28:44.634Z,19.10
2022-08-22T20:31:24.026Z,19.10
2022-08-22T20:40:54.827Z,19.30
2022-08-22T20:43:12.589Z,19.20
2022-08-22T20:46:00.745Z,19.20
2022-08-22T20:48:41.143Z,19.20
2022-08-22T20:51:12.952Z,19.30
2022-08-22T20:53:40.149Z,18.10
2022-08-22T21:01:11.771Z,19.10
2022-08-22T21:06:28.283Z,19.10
2022-08-22T21:09:38.545Z,19.00
2022-08-22T21:14:44.522Z,19.10
2022-08-22T21:17:25.096Z,19.00
2022-08-22T21:19:52.773Z,19.30
2022-08-22T21:25:00.490Z,19.00
2022-08-22T21:27:32.809Z,19.10
2022-08-22T21:30:06.095Z,19.10
2022-08-22T21:32:41.982Z,19.40
2022-08-22T21:35:31.653Z,20.00
2022-08-22T21:38:01.483Z,18.90
2022-08-22T21:40:37.561Z,19.10
2022-08-22T21:43:38.367Z,18.90
2022-08-22T21:48:44.063Z,18.70
2022-08-22T21:51:42.068Z,18.10
2022-08-22T21:54:32.025Z,18.90
2022-08-22T21:59:59.308Z,18.90
2022-08-22T22:02:38.112Z,18.40
2022-08-22T22:05:17.041Z,18.90
2022-08-22T22:10:19.295Z,18.80
2022-08-22T22:12:49.507Z,18.90
2022-08-22T22:15:21.638Z,18.90
2022-08-22T22:17:48.812Z,18.60
2022-08-22T22:25:40.380Z,18.70
2022-08-22T22:28:21.851Z,18.80
2022-08-22T22:33:28.410Z,18.70
2022-08-22T22:36:01.116Z,18.00
2022-08-22T22:40:57.265Z,18.30
2022-08-22T22:48:24.855Z,18.90
2022-08-22T22:50:55.609Z,18.70
2022-08-22T22:56:15.894Z,18.80
2022-08-22T22:58:44.089Z,18.60
2022-08-22T23:09:01.228Z,20.00
2022-08-22T23:11:30.612Z,18.60
2022-08-22T23:16:28.906Z,18.60
2022-08-22T23:18:56.596Z,19.10
2022-08-22T23:21:29.979Z,18.40
2022-08-22T23:34:15.819Z,18.40
2022-08-22T23:36:46.947Z,19.20
2022-08-22T23:39:15.860Z,18.30
2022-08-22T23:41:46.541Z,19.00
2022-08-22T23:44:19.245Z,18.40
2022-08-22T23:46:47.230Z,18.40
2022-08-22T23:49:15.876Z,18.40
2022-08-22T23:59:57.974Z,18.70
